Time;durP1;ratioP1;P1;durP2;ratioP2;P2;SDS_P1;SDS_P2;PMS_P1;PMS_P2;Temp;Humidity;BMP_temperature;BMP_pressure;BME280_temperature;BME280_humidity;BME280_pressure;Samples;Min_cycle;Max_cycle;Signal;HPM_P1;HPM_P2
2021/09/12 00:01:41;;;;;;;0.87;0.70;;;16.80;99.90;;;;;;5074335;28;20563;-72
2021/09/12 00:04:08;;;;;;;1.60;0.70;;;16.80;99.90;;;;;;5074620;28;20439;-72
2021/09/12 00:06:35;;;;;;;1.00;0.70;;;16.80;99.90;;;;;;5074793;28;20416;-73
2021/09/12 00:09:03;;;;;;;1.33;0.80;;;16.80;99.90;;;;;;5074245;28;20488;-73
2021/09/12 00:11:30;;;;;;;0.90;0.70;;;16.80;99.90;;;;;;5074193;28;20424;-73
2021/09/12 00:13:57;;;;;;;1.10;0.80;;;16.80;99.90;;;;;;5073865;28;20518;-73
2021/09/12 00:16:24;;;;;;;1.60;0.75;;;16.70;99.90;;;;;;5074170;28;20873;-72
2021/09/12 00:18:51;;;;;;;0.90;0.70;;;16.80;99.90;;;;;;5073750;28;20431;-73
2021/09/12 00:21:18;;;;;;;1.40;0.80;;;16.80;99.90;;;;;;5073130;28;20514;-73
2021/09/12 00:23:45;;;;;;;1.10;0.70;;;16.70;99.90;;;;;;5073160;28;20435;-73
2021/09/12 00:26:13;;;;;;;0.90;0.70;;;16.70;99.90;;;;;;5072676;28;20859;-73
2021/09/12 00:28:40;;;;;;;1.00;0.80;;;16.70;99.90;;;;;;5072936;28;20466;-73
2021/09/12 00:31:07;;;;;;;1.10;0.70;;;16.60;99.90;;;;;;5072791;28;20420;-73
2021/09/12 00:33:34;;;;;;;1.40;0.80;;;16.70;99.90;;;;;;5072461;28;20434;-72
2021/09/12 00:36:01;;;;;;;1.60;0.80;;;16.70;99.90;;;;;;5073886;28;20492;-72
2021/09/12 00:38:28;;;;;;;1.00;0.70;;;16.70;99.90;;;;;;5073684;28;20497;-72
2021/09/12 00:40:58;;;;;;;1.20;0.80;;;16.70;99.90;;;;;;5074884;28;20861;-73
2021/09/12 00:43:27;;;;;;;1.00;0.70;;;16.80;99.90;;;;;;5073964;28;20455;-73
2021/09/12 00:45:54;;;;;;;1.30;0.70;;;16.80;99.90;;;;;;5074608;28;20426;-73
2021/09/12 00:48:22;;;;;;;1.00;0.75;;;16.80;99.90;;;;;;5075305;28;20435;-73
2021/09/12 00:50:50;;;;;;;1.00;0.70;;;16.70;99.90;;;;;;5075437;28;20451;-73
2021/09/12 00:53:18;;;;;;;1.10;0.70;;;16.70;99.90;;;;;;5074117;28;20529;-73
2021/09/12 00:55:45;;;;;;;1.00;0.80;;;16.70;99.90;;;;;;5073766;28;20810;-72
2021/09/12 00:58:15;;;;;;;1.10;0.70;;;16.70;99.90;;;;;;5010364;28;1811344;-72
2021/09/12 01:00:44;;;;;;;1.08;0.73;;;16.70;99.90;;;;;;5075381;28;20427;-72
2021/09/12 01:03:11;;;;;;;0.90;0.60;;;16.60;99.90;;;;;;5073931;28;20514;-72
2021/09/12 01:05:39;;;;;;;2.70;0.80;;;16.60;99.90;;;;;;5074529;28;20446;-72
2021/09/12 01:08:08;;;;;;;0.93;0.70;;;16.60;99.90;;;;;;5075678;28;20466;-72
2021/09/12 01:10:37;;;;;;;1.40;0.70;;;16.70;99.90;;;;;;5076053;28;20420;-72
2021/09/12 01:13:04;;;;;;;1.00;0.70;;;16.70;99.90;;;;;;5074120;28;20501;-72
2021/09/12 01:15:31;;;;;;;1.10;0.80;;;16.80;99.90;;;;;;5074407;28;20624;-72
2021/09/12 01:18:00;;;;;;;1.10;0.70;;;16.80;99.90;;;;;;5074280;28;20607;-72
2021/09/12 01:20:27;;;;;;;1.40;1.00;;;16.80;99.90;;;;;;5075039;28;20459;-72
2021/09/12 01:22:54;;;;;;;1.10;0.70;;;16.80;99.90;;;;;;5074398;28;20411;-72
2021/09/12 01:25:22;;;;;;;1.00;0.70;;;16.70;99.90;;;;;;5073297;28;20477;-73
2021/09/12 01:27:49;;;;;;;1.70;0.77;;;16.70;99.90;;;;;;5074053;28;20481;-73
2021/09/12 01:30:16;;;;;;;1.48;0.70;;;16.60;99.90;;;;;;5072991;28;20855;-72
2021/09/12 01:32:43;;;;;;;2.05;0.70;;;16.60;99.90;;;;;;5073369;28;20851;-72
2021/09/12 01:35:11;;;;;;;1.00;0.70;;;16.60;99.90;;;;;;5074056;28;20711;-72
2021/09/12 01:37:38;;;;;;;1.10;0.70;;;16.60;99.90;;;;;;5072471;28;20518;-73
2021/09/12 01:40:06;;;;;;;1.00;0.75;;;16.60;99.90;;;;;;5072459;28;20442;-72
2021/09/12 01:42:34;;;;;;;0.90;0.70;;;16.70;99.90;;;;;;5072300;28;20477;-72
2021/09/12 01:45:01;;;;;;;0.90;0.70;;;16.70;99.90;;;;;;5073954;28;20489;-72
2021/09/12 01:47:28;;;;;;;0.90;0.70;;;16.70;99.90;;;;;;5072372;28;20408;-73
2021/09/12 01:49:55;;;;;;;1.10;0.80;;;16.70;99.90;;;;;;5074359;28;20489;-72
2021/09/12 01:52:22;;;;;;;0.88;0.70;;;16.70;99.90;;;;;;5073440;28;20881;-72
2021/09/12 01:54:49;;;;;;;0.90;0.80;;;16.70;99.90;;;;;;5073201;28;20470;-72
2021/09/12 01:57:16;;;;;;;1.00;0.70;;;16.60;99.90;;;;;;5073566;28;20796;-72
2021/09/12 01:59:44;;;;;;;1.00;0.70;;;16.50;99.90;;;;;;5076565;28;20443;-72
2021/09/12 02:02:11;;;;;;;2.13;0.80;;;16.40;99.90;;;;;;5076845;28;20447;-72
2021/09/12 02:04:38;;;;;;;0.80;0.67;;;16.40;99.90;;;;;;5076502;28;20459;-73
2021/09/12 02:07:05;;;;;;;1.08;0.80;;;16.30;99.90;;;;;;5075899;28;20514;-73
2021/09/12 02:09:32;;;;;;;1.80;0.70;;;16.40;99.90;;;;;;5076487;28;20849;-73
2021/09/12 02:11:59;;;;;;;0.98;0.70;;;16.50;99.90;;;;;;5077364;28;20501;-72
2021/09/12 02:14:26;;;;;;;0.90;0.70;;;16.50;99.90;;;;;;5075459;28;20492;-72
2021/09/12 02:16:54;;;;;;;1.23;0.70;;;16.50;99.90;;;;;;5077179;28;20480;-72
2021/09/12 02:19:21;;;;;;;1.00;0.70;;;16.50;99.90;;;;;;5076903;28;20601;-72
2021/09/12 02:21:48;;;;;;;1.10;0.80;;;16.60;99.90;;;;;;5077754;28;20734;-73
2021/09/12 02:24:15;;;;;;;0.95;0.70;;;16.60;99.90;;;;;;5075439;28;20711;-73
2021/09/12 02:26:42;;;;;;;1.90;0.68;;;16.60;99.90;;;;;;5076595;28;20455;-73
2021/09/12 02:29:09;;;;;;;1.10;0.60;;;16.60;99.90;;;;;;5078034;28;20554;-72
2021/09/12 02:31:35;;;;;;;1.52;0.70;;;16.60;99.90;;;;;;5077759;28;20450;-72
2021/09/12 02:34:04;;;;;;;0.90;0.70;;;16.50;99.90;;;;;;5075861;28;20427;-72
2021/09/12 02:36:31;;;;;;;1.20;0.70;;;16.50;99.90;;;;;;5076231;28;20436;-72
2021/09/12 02:38:58;;;;;;;1.13;0.70;;;16.50;99.90;;;;;;5075559;28;20905;-72
2021/09/12 02:41:25;;;;;;;1.10;0.80;;;16.30;99.90;;;;;;5075770;28;20423;-72
2021/09/12 02:43:51;;;;;;;1.10;0.80;;;16.20;99.90;;;;;;5075911;28;20427;-72
2021/09/12 02:46:18;;;;;;;1.10;0.70;;;16.00;99.90;;;;;;5075776;28;20415;-73
2021/09/12 02:48:45;;;;;;;1.10;0.80;;;15.90;99.90;;;;;;5077728;28;20428;-73
2021/09/12 02:51:14;;;;;;;1.10;0.70;;;16.00;99.90;;;;;;5076615;28;20454;-72
2021/09/12 02:53:41;;;;;;;1.30;0.70;;;16.00;99.90;;;;;;5077195;28;20501;-72
2021/09/12 02:56:07;;;;;;;1.10;0.70;;;15.90;99.90;;;;;;5077932;28;20439;-72
2021/09/12 02:58:34;;;;;;;1.10;0.80;;;15.90;99.90;;;;;;5076938;28;20475;-72
2021/09/12 03:01:01;;;;;;;2.80;0.80;;;16.10;99.90;;;;;;5076711;28;20502;-72
2021/09/12 03:03:28;;;;;;;1.00;0.70;;;16.20;99.90;;;;;;5077059;28;20625;-72
2021/09/12 03:05:56;;;;;;;1.00;0.70;;;16.20;99.90;;;;;;5076416;28;20514;-72
2021/09/12 03:08:24;;;;;;;1.27;0.80;;;16.30;99.90;;;;;;5076519;28;20434;-73
2021/09/12 03:10:51;;;;;;;1.73;0.70;;;16.20;99.90;;;;;;5077555;28;20423;-73
2021/09/12 03:13:18;;;;;;;1.00;0.80;;;16.10;99.90;;;;;;5076364;28;20590;-73
2021/09/12 03:15:45;;;;;;;2.00;0.70;;;16.00;99.90;;;;;;5076700;28;20466;-72
2021/09/12 03:18:12;;;;;;;1.00;0.70;;;16.00;99.90;;;;;;5076581;28;20439;-72
2021/09/12 03:20:39;;;;;;;1.50;0.65;;;16.00;99.90;;;;;;5075795;28;21235;-72
2021/09/12 03:23:06;;;;;;;1.00;0.70;;;16.10;99.90;;;;;;5076684;28;21110;-73
2021/09/12 03:25:34;;;;;;;0.80;0.70;;;16.10;99.90;;;;;;5074107;28;20439;-73
2021/09/12 03:28:01;;;;;;;1.30;0.70;;;16.20;99.90;;;;;;5076759;28;20459;-73
2021/09/12 03:30:28;;;;;;;1.10;0.80;;;16.20;99.90;;;;;;5076098;28;20789;-73
2021/09/12 03:32:55;;;;;;;1.00;0.70;;;16.20;99.90;;;;;;5076080;28;20846;-73
2021/09/12 03:35:22;;;;;;;0.90;0.70;;;16.20;99.90;;;;;;5076056;28;20614;-73
2021/09/12 03:37:49;;;;;;;1.00;0.60;;;16.20;99.90;;;;;;5076352;28;20463;-73
2021/09/12 03:40:16;;;;;;;1.10;0.70;;;16.10;99.90;;;;;;5076264;28;20463;-73
2021/09/12 03:42:44;;;;;;;0.80;0.60;;;16.10;99.90;;;;;;5075928;28;20869;-72
2021/09/12 03:45:11;;;;;;;1.20;0.80;;;16.10;99.90;;;;;;5075780;28;20518;-73
2021/09/12 03:47:39;;;;;;;1.50;0.70;;;16.00;99.90;;;;;;5077662;28;20474;-73
2021/09/12 03:50:07;;;;;;;1.00;0.68;;;16.00;99.90;;;;;;5076445;28;20485;-73
2021/09/12 03:52:34;;;;;;;1.00;0.70;;;16.00;99.90;;;;;;5076235;28;20829;-73
2021/09/12 03:55:00;;;;;;;1.00;0.70;;;16.00;99.90;;;;;;5075074;28;20412;-73
2021/09/12 03:57:27;;;;;;;2.20;0.67;;;16.00;99.90;;;;;;5076123;28;20435;-73
2021/09/12 03:59:56;;;;;;;1.70;0.70;;;16.00;99.90;;;;;;5076740;28;20704;-72
2021/09/12 04:02:23;;;;;;;1.00;0.70;;;16.00;99.90;;;;;;5075831;28;20509;-73
2021/09/12 04:04:49;;;;;;;0.90;0.70;;;15.90;99.90;;;;;;5076060;28;20470;-72
2021/09/12 04:07:16;;;;;;;1.40;0.70;;;16.00;99.90;;;;;;5076296;28;20847;-74
2021/09/12 04:09:43;;;;;;;1.00;0.70;;;15.90;99.90;;;;;;5075777;28;20466;-73
2021/09/12 04:12:11;;;;;;;1.10;0.70;;;15.90;99.90;;;;;;5075046;28;20466;-72
2021/09/12 04:14:38;;;;;;;1.10;0.70;;;15.80;99.90;;;;;;5074207;28;20514;-73
2021/09/12 04:17:06;;;;;;;1.40;0.70;;;15.70;99.90;;;;;;5075633;28;20463;-72
2021/09/12 04:19:33;;;;;;;1.00;0.80;;;15.70;99.90;;;;;;5073028;28;20462;-72
2021/09/12 04:22:00;;;;;;;0.90;0.70;;;15.70;99.90;;;;;;5073160;28;20477;-72
2021/09/12 04:24:27;;;;;;;1.00;0.80;;;15.80;99.90;;;;;;5071875;28;20463;-72
2021/09/12 04:26:54;;;;;;;1.05;0.70;;;15.80;99.90;;;;;;5074272;28;20855;-72
2021/09/12 04:29:22;;;;;;;2.20;0.90;;;15.80;99.90;;;;;;5075686;28;20470;-73
2021/09/12 04:31:49;;;;;;;1.60;0.70;;;15.80;99.90;;;;;;5075455;28;20867;-73
2021/09/12 04:34:17;;;;;;;0.90;0.70;;;15.80;99.90;;;;;;5075865;28;20462;-72
2021/09/12 04:36:44;;;;;;;0.93;0.70;;;15.80;99.90;;;;;;5076946;28;20459;-72
2021/09/12 04:39:11;;;;;;;1.45;0.80;;;15.70;99.90;;;;;;5074977;28;20451;-73
2021/09/12 04:41:38;;;;;;;1.10;0.70;;;15.60;99.90;;;;;;5075341;28;20449;-72
2021/09/12 04:44:06;;;;;;;1.05;0.70;;;15.50;99.90;;;;;;5075412;28;20459;-73
2021/09/12 04:46:33;;;;;;;0.90;0.60;;;15.50;99.90;;;;;;5076609;28;20462;-73
2021/09/12 04:49:00;;;;;;;2.10;1.00;;;15.40;99.90;;;;;;5075177;28;20518;-72
2021/09/12 04:51:28;;;;;;;1.00;0.80;;;15.50;99.90;;;;;;5074676;28;20462;-72
2021/09/12 04:53:55;;;;;;;1.27;0.70;;;15.50;99.90;;;;;;5073385;28;20722;-72
2021/09/12 04:56:22;;;;;;;0.82;0.70;;;15.60;99.90;;;;;;5070336;28;20420;-72
2021/09/12 04:58:50;;;;;;;1.77;0.60;;;15.70;99.90;;;;;;5069965;28;20527;-72
2021/09/12 05:01:17;;;;;;;4.57;0.70;;;15.70;99.90;;;;;;5070916;28;20416;-71
2021/09/12 05:03:44;;;;;;;1.40;0.63;;;15.80;99.90;;;;;;5070536;28;20463;-72
2021/09/12 05:06:11;;;;;;;0.93;0.70;;;15.80;99.90;;;;;;5070320;28;20912;-72
2021/09/12 05:08:40;;;;;;;0.90;0.70;;;15.90;99.90;;;;;;5070807;28;20787;-72
2021/09/12 05:11:07;;;;;;;0.90;0.70;;;15.80;99.90;;;;;;5072321;28;20463;-73
2021/09/12 05:13:36;;;;;;;1.70;0.70;;;15.80;99.90;;;;;;5074068;28;20492;-72
2021/09/12 05:16:04;;;;;;;0.90;0.60;;;15.80;99.90;;;;;;5074878;28;20420;-72
2021/09/12 05:18:30;;;;;;;0.97;0.70;;;15.80;99.90;;;;;;5073962;28;20436;-72
2021/09/12 05:20:58;;;;;;;0.82;0.60;;;15.80;99.90;;;;;;5075170;28;20524;-72
2021/09/12 05:23:24;;;;;;;0.80;0.60;;;15.80;99.90;;;;;;5074781;28;20462;-72
2021/09/12 05:25:53;;;;;;;1.00;0.63;;;15.90;99.90;;;;;;5072732;28;20420;-72
2021/09/12 05:28:20;;;;;;;0.80;0.60;;;15.90;99.90;;;;;;5074410;28;20544;-72
2021/09/12 05:30:47;;;;;;;1.55;0.70;;;15.90;99.90;;;;;;5072962;28;20463;-72
2021/09/12 05:33:14;;;;;;;1.10;0.60;;;15.80;99.90;;;;;;5074675;28;20728;-72
2021/09/12 05:35:41;;;;;;;1.33;0.70;;;15.80;99.90;;;;;;5075880;28;20419;-72
2021/09/12 05:38:08;;;;;;;0.80;0.70;;;15.80;99.90;;;;;;5075930;28;20942;-72
2021/09/12 05:40:35;;;;;;;0.90;0.63;;;15.60;99.90;;;;;;5076410;28;20423;-72
2021/09/12 05:43:04;;;;;;;0.90;0.60;;;15.50;99.90;;;;;;5077013;28;20427;-74
2021/09/12 05:45:31;;;;;;;0.80;0.60;;;15.50;99.90;;;;;;5076587;28;20707;-72
2021/09/12 05:47:58;;;;;;;0.90;0.70;;;15.60;99.90;;;;;;5075940;28;20492;-71
2021/09/12 05:50:25;;;;;;;0.90;0.70;;;15.70;99.90;;;;;;5077349;28;20480;-73
2021/09/12 05:52:52;;;;;;;0.93;0.70;;;15.80;99.90;;;;;;5077726;28;20511;-73
2021/09/12 05:55:19;;;;;;;0.88;0.70;;;15.80;99.90;;;;;;5078112;28;20896;-73
2021/09/12 05:57:46;;;;;;;1.70;0.77;;;15.90;99.90;;;;;;5076984;28;20634;-73
2021/09/12 06:00:15;;;;;;;0.90;0.70;;;15.90;99.90;;;;;;5076980;28;20789;-73
2021/09/12 06:02:42;;;;;;;0.80;0.70;;;15.90;99.90;;;;;;5076255;28;20477;-73
2021/09/12 06:05:10;;;;;;;0.80;0.60;;;15.90;99.90;;;;;;5075322;28;20475;-73
2021/09/12 06:07:37;;;;;;;1.77;0.60;;;15.90;99.90;;;;;;5075779;28;20426;-73
2021/09/12 06:10:05;;;;;;;1.20;0.65;;;15.80;99.90;;;;;;5075051;28;20415;-73
2021/09/12 06:12:32;;;;;;;0.90;0.65;;;15.90;99.90;;;;;;5074688;28;20423;-73
2021/09/12 06:14:59;;;;;;;0.90;0.70;;;16.00;99.90;;;;;;5074947;28;20431;-73
2021/09/12 06:17:27;;;;;;;0.93;0.70;;;16.10;99.90;;;;;;5076728;28;20423;-73
2021/09/12 06:19:54;;;;;;;1.00;0.70;;;16.10;99.90;;;;;;5077581;28;20904;-73
2021/09/12 06:22:21;;;;;;;1.00;0.70;;;16.00;99.90;;;;;;5077833;28;20427;-72
2021/09/12 06:24:48;;;;;;;0.95;0.70;;;16.00;99.90;;;;;;5077159;28;20539;-72
2021/09/12 06:27:15;;;;;;;1.60;0.70;;;16.00;99.90;;;;;;5078510;28;20522;-74
2021/09/12 06:29:42;;;;;;;0.90;0.70;;;16.10;99.90;;;;;;5077206;28;20420;-73
2021/09/12 06:32:09;;;;;;;1.00;0.70;;;16.20;99.90;;;;;;5077841;28;20419;-74
2021/09/12 06:34:38;;;;;;;1.00;0.60;;;16.30;99.90;;;;;;5076684;28;20434;-74
2021/09/12 06:37:06;;;;;;;1.00;0.70;;;16.50;99.90;;;;;;5076627;28;20432;-73
2021/09/12 06:39:33;;;;;;;1.10;0.80;;;16.50;99.90;;;;;;5075658;28;20435;-74
2021/09/12 06:42:00;;;;;;;1.00;0.70;;;16.40;99.90;;;;;;5076203;28;20466;-73
2021/09/12 06:44:27;;;;;;;0.88;0.68;;;16.40;99.90;;;;;;5074696;28;20493;-72
2021/09/12 06:46:54;;;;;;;1.30;0.68;;;16.50;99.90;;;;;;5074133;28;20524;-72
2021/09/12 06:49:20;;;;;;;0.90;0.67;;;16.60;99.90;;;;;;5074579;28;20538;-74
2021/09/12 06:51:49;;;;;;;1.10;0.70;;;16.70;99.90;;;;;;5074747;28;20465;-72
2021/09/12 06:54:16;;;;;;;0.80;0.63;;;16.70;99.90;;;;;;5074812;28;20431;-72
2021/09/12 06:56:43;;;;;;;0.90;0.60;;;16.70;99.90;;;;;;5074171;28;20583;-72
2021/09/12 06:59:10;;;;;;;2.60;0.80;;;16.70;99.90;;;;;;5074186;28;20536;-73
2021/09/12 07:01:37;;;;;;;1.20;0.70;;;16.70;99.90;;;;;;5074759;28;20423;-73
2021/09/12 07:04:04;;;;;;;0.90;0.60;;;16.70;99.90;;;;;;5073316;28;20470;-72
2021/09/12 07:06:31;;;;;;;2.00;0.70;;;16.80;99.90;;;;;;5074629;28;20500;-73
2021/09/12 07:08:59;;;;;;;1.50;0.60;;;16.90;99.90;;;;;;5075362;28;20957;-72
2021/09/12 07:11:26;;;;;;;1.00;0.70;;;16.90;99.90;;;;;;5073793;28;20908;-73
2021/09/12 07:13:53;;;;;;;1.10;0.70;;;16.90;99.90;;;;;;5074322;28;20470;-74
2021/09/12 07:16:20;;;;;;;0.98;0.70;;;17.00;99.90;;;;;;5074841;28;20459;-72
2021/09/12 07:18:47;;;;;;;1.10;0.70;;;17.00;99.90;;;;;;5075614;28;20463;-73
2021/09/12 07:21:14;;;;;;;0.80;0.70;;;17.10;99.90;;;;;;5075728;28;20428;-74
2021/09/12 07:23:41;;;;;;;1.30;0.70;;;17.10;99.90;;;;;;5074458;28;20742;-73
2021/09/12 07:26:09;;;;;;;0.75;0.60;;;17.20;99.90;;;;;;5075785;28;20428;-74
2021/09/12 07:28:38;;;;;;;0.90;0.60;;;17.30;99.90;;;;;;5075916;28;20427;-74
2021/09/12 07:31:05;;;;;;;0.93;0.80;;;17.30;99.90;;;;;;5075700;28;20835;-73
2021/09/12 07:33:32;;;;;;;1.10;0.80;;;17.30;99.90;;;;;;5075400;28;20786;-73
2021/09/12 07:35:59;;;;;;;1.10;0.70;;;17.30;99.90;;;;;;5074790;28;20514;-73
2021/09/12 07:38:26;;;;;;;1.00;0.70;;;17.30;99.90;;;;;;5071837;28;20535;-74
2021/09/12 07:40:54;;;;;;;1.10;0.70;;;17.40;99.90;;;;;;5065601;28;20423;-73
2021/09/12 07:43:22;;;;;;;1.10;0.90;;;17.40;99.90;;;;;;5074786;28;20474;-74
2021/09/12 07:45:49;;;;;;;1.45;0.80;;;17.50;99.90;;;;;;5074624;28;20867;-73
2021/09/12 07:48:21;;;;;;;1.10;0.80;;;17.60;99.90;;;;;;5070672;28;20443;-73
2021/09/12 07:50:48;;;;;;;1.17;0.90;;;17.60;99.90;;;;;;5070815;28;20425;-74
2021/09/12 07:53:15;;;;;;;1.00;0.85;;;17.80;99.90;;;;;;5075179;28;20474;-74
2021/09/12 07:55:42;;;;;;;1.50;0.90;;;17.90;99.90;;;;;;5075525;28;20416;-73
2021/09/12 07:58:09;;;;;;;1.80;0.80;;;18.00;99.90;;;;;;5076334;28;20439;-73
2021/09/12 08:00:37;;;;;;;1.20;0.80;;;18.00;99.90;;;;;;5072190;28;20420;-73
2021/09/12 08:03:04;;;;;;;1.10;0.70;;;18.10;99.90;;;;;;5074224;28;20982;-73
2021/09/12 08:05:33;;;;;;;0.90;0.70;;;18.10;99.90;;;;;;5076161;28;20901;-73
2021/09/12 08:08:01;;;;;;;1.20;0.80;;;18.20;99.90;;;;;;5075230;28;20902;-74
2021/09/12 08:10:28;;;;;;;1.30;1.00;;;18.30;99.90;;;;;;5076127;28;20458;-74
2021/09/12 08:12:59;;;;;;;1.13;0.80;;;18.50;99.90;;;;;;5075717;28;20424;-74
2021/09/12 08:15:26;;;;;;;1.10;0.80;;;18.60;99.90;;;;;;5074702;28;20419;-74
2021/09/12 08:17:54;;;;;;;1.02;0.80;;;18.50;99.90;;;;;;5075758;28;20524;-74
2021/09/12 08:20:21;;;;;;;1.20;0.90;;;18.50;99.90;;;;;;5074946;28;20781;-73
2021/09/12 08:22:48;;;;;;;1.50;0.80;;;18.60;99.90;;;;;;5074668;28;20411;-73
2021/09/12 08:25:15;;;;;;;1.83;0.70;;;18.70;99.90;;;;;;5074281;28;20424;-73
2021/09/12 08:27:45;;;;;;;0.90;0.70;;;18.70;99.90;;;;;;5075653;28;20462;-73
2021/09/12 08:30:13;;;;;;;1.00;0.70;;;18.80;99.90;;;;;;5074984;28;20424;-74
2021/09/12 08:32:40;;;;;;;1.00;0.60;;;18.80;99.90;;;;;;5073665;28;20416;-72
2021/09/12 08:35:09;;;;;;;0.90;0.60;;;18.90;99.90;;;;;;5074386;28;20499;-74
2021/09/12 08:37:36;;;;;;;0.93;0.70;;;19.10;99.90;;;;;;5073621;28;20494;-75
2021/09/12 08:40:09;;;;;;;1.60;0.65;;;19.30;99.90;;;;;;5073610;28;21038;-74
2021/09/12 08:42:39;;;;;;;1.00;0.60;;;19.50;99.90;;;;;;5071646;28;20474;-74
2021/09/12 08:45:07;;;;;;;0.90;0.70;;;19.50;99.90;;;;;;5072438;28;20648;-73
2021/09/12 08:47:35;;;;;;;2.00;0.68;;;19.50;99.90;;;;;;5073684;28;20437;-73
2021/09/12 08:50:02;;;;;;;1.20;0.70;;;19.60;99.90;;;;;;5073782;28;20444;-73
2021/09/12 08:52:31;;;;;;;0.82;0.70;;;19.70;99.90;;;;;;5073282;28;20828;-74
2021/09/12 08:54:58;;;;;;;0.70;0.60;;;19.80;99.90;;;;;;5073137;28;20873;-72
2021/09/12 08:57:25;;;;;;;0.70;0.50;;;19.70;99.90;;;;;;5074671;28;20427;-74
2021/09/12 08:59:52;;;;;;;0.70;0.60;;;19.70;99.90;;;;;;5074091;28;20605;-74
2021/09/12 09:02:26;;;;;;;0.70;0.60;;;19.70;99.90;;;;;;5073874;28;20431;-74
2021/09/12 09:05:02;;;;;;;0.90;0.60;;;19.90;99.90;;;;;;5074754;28;20435;-74
2021/09/12 09:07:31;;;;;;;0.90;0.50;;;19.80;99.90;;;;;;5092825;28;20402;-74
2021/09/12 09:10:00;;;;;;;1.20;0.50;;;19.80;99.90;;;;;;5092979;28;20975;-74
2021/09/12 09:12:33;;;;;;;1.20;0.60;;;20.00;99.90;;;;;;5092698;28;20422;-74
2021/09/12 09:15:10;;;;;;;0.80;0.60;;;20.30;99.90;;;;;;5090659;28;20463;-74
2021/09/12 09:17:39;;;;;;;1.00;0.60;;;20.50;99.90;;;;;;5087102;28;20444;-74
2021/09/12 09:20:08;;;;;;;1.25;0.50;;;20.60;99.90;;;;;;5090138;28;20422;-74
2021/09/12 09:22:39;;;;;;;1.17;0.60;;;20.80;99.90;;;;;;5071300;28;20867;-73
2021/09/12 09:25:12;;;;;;;3.00;0.60;;;20.90;99.90;;;;;;5065711;28;20862;-73
2021/09/12 09:28:01;;;;;;;0.75;0.60;;;21.00;99.90;;;;;;5065874;28;20466;-72
2021/09/12 09:30:30;;;;;;;1.42;0.55;;;21.00;99.90;;;;;;5069964;28;21054;-72
2021/09/12 09:33:18;;;;;;;0.80;0.60;;;21.10;99.90;;;;;;5071317;28;20496;-72
2021/09/12 09:35:54;;;;;;;0.93;0.60;;;21.20;99.90;;;;;;5068571;28;20423;-72
2021/09/12 09:38:24;;;;;;;0.73;0.50;;;21.30;99.90;;;;;;5069836;28;20496;-72
2021/09/12 09:40:59;;;;;;;0.80;0.50;;;21.40;99.90;;;;;;5070150;28;20431;-72
2021/09/12 09:43:37;;;;;;;0.70;0.50;;;21.40;99.90;;;;;;5069421;28;20854;-72
2021/09/12 09:46:04;;;;;;;0.60;0.50;;;21.50;99.90;;;;;;5071116;28;20420;-72
2021/09/12 09:48:34;;;;;;;0.70;0.50;;;21.40;99.90;;;;;;5062959;28;20464;-71
2021/09/12 09:51:03;;;;;;;1.40;0.50;;;21.60;99.90;;;;;;5070090;28;20858;-72
2021/09/12 09:53:35;;;;;;;0.75;0.50;;;21.70;99.90;;;;;;5053993;28;20449;-72
2021/09/12 09:56:03;;;;;;;0.60;0.50;;;22.00;99.90;;;;;;5066819;28;20851;-72
2021/09/12 09:58:32;;;;;;;0.70;0.50;;;22.40;99.90;;;;;;5069758;28;20863;-71
2021/09/12 10:01:01;;;;;;;0.68;0.50;;;22.70;99.90;;;;;;5050349;28;20840;-72
2021/09/12 10:03:29;;;;;;;1.10;0.60;;;22.70;99.90;;;;;;5049164;28;20791;-72
2021/09/12 10:05:56;;;;;;;0.60;0.40;;;22.90;99.90;;;;;;5065539;28;20782;-72
2021/09/12 10:08:24;;;;;;;0.70;0.50;;;23.20;99.90;;;;;;5069387;28;20530;-72
2021/09/12 10:10:53;;;;;;;1.00;0.50;;;23.30;99.90;;;;;;5069788;28;20471;-72
2021/09/12 10:13:23;;;;;;;0.70;0.50;;;23.50;99.90;;;;;;5070087;28;20790;-72
2021/09/12 10:15:53;;;;;;;2.00;0.50;;;23.80;99.90;;;;;;5067049;28;20503;-72
2021/09/12 10:18:24;;;;;;;0.63;0.50;;;24.10;99.90;;;;;;5069618;28;20786;-72
2021/09/12 10:20:53;;;;;;;0.70;0.40;;;24.20;99.90;;;;;;5074378;28;20998;-72
2021/09/12 10:23:21;;;;;;;1.00;0.50;;;24.30;99.90;;;;;;5075189;28;20438;-72
2021/09/12 10:26:01;;;;;;;0.60;0.40;;;24.40;99.90;;;;;;5073456;28;20785;-72
2021/09/12 10:28:30;;;;;;;0.60;0.50;;;24.40;99.90;;;;;;5074086;28;20913;-72
2021/09/12 10:30:57;;;;;;;1.00;0.43;;;24.70;99.90;;;;;;5073510;28;21035;-72
2021/09/12 10:33:26;;;;;;;0.60;0.50;;;24.90;99.90;;;;;;5070594;28;20528;-72
2021/09/12 10:35:59;;;;;;;0.70;0.60;;;24.70;99.90;;;;;;5069112;28;20437;-71
2021/09/12 10:38:29;;;;;;;0.80;0.60;;;25.00;99.90;;;;;;5054750;28;20871;-71
2021/09/12 10:41:25;;;;;;;1.02;0.50;;;25.10;99.90;;;;;;5055690;28;20835;-72
2021/09/12 10:43:54;;;;;;;0.60;0.50;;;25.20;99.90;;;;;;5055011;28;20450;-72
2021/09/12 10:46:35;;;;;;;1.30;0.50;;;25.10;99.90;;;;;;5059252;28;20456;-71
2021/09/12 10:49:11;;;;;;;1.00;0.40;;;25.10;99.90;;;;;;5052977;28;20543;-72
2021/09/12 10:51:39;;;;;;;0.73;0.50;;;24.90;99.90;;;;;;5054562;28;20498;-72
2021/09/12 10:54:06;;;;;;;0.60;0.50;;;24.00;99.90;;;;;;5054560;28;20454;-73
2021/09/12 10:56:36;;;;;;;0.70;0.50;;;24.00;99.90;;;;;;5062069;28;20911;-72
2021/09/12 10:59:05;;;;;;;0.60;0.50;;;23.60;99.90;;;;;;5074880;28;20435;-72
2021/09/12 11:01:34;;;;;;;0.73;0.50;;;23.90;99.90;;;;;;5075394;28;20428;-73
2021/09/12 11:04:02;;;;;;;0.65;0.50;;;23.70;99.90;;;;;;5064784;28;20431;-72
2021/09/12 11:06:30;;;;;;;0.70;0.50;;;23.90;99.90;;;;;;5076389;28;20507;-72
2021/09/12 11:08:58;;;;;;;0.93;0.50;;;23.80;99.90;;;;;;5075568;28;20436;-72
2021/09/12 11:11:26;;;;;;;1.10;0.50;;;24.40;99.90;;;;;;5068184;28;20421;-71
2021/09/12 11:13:58;;;;;;;0.65;0.50;;;24.70;99.90;;;;;;5056551;28;20440;-72
2021/09/12 11:16:28;;;;;;;0.70;0.50;;;25.20;99.90;;;;;;5060215;28;20516;-71
2021/09/12 11:19:01;;;;;;;0.80;0.50;;;25.20;99.90;;;;;;5056224;28;20436;-72
2021/09/12 11:21:31;;;;;;;0.80;0.50;;;24.90;99.90;;;;;;5075093;28;20423;-71
2021/09/12 11:24:01;;;;;;;0.77;0.40;;;24.50;99.90;;;;;;5072603;28;20494;-72
2021/09/12 11:26:28;;;;;;;0.63;0.50;;;24.10;99.90;;;;;;5073206;28;20505;-72
2021/09/12 11:29:06;;;;;;;0.70;0.50;;;23.90;99.90;;;;;;5073254;28;20530;-72
2021/09/12 11:31:35;;;;;;;0.65;0.43;;;23.60;99.90;;;;;;5070639;28;20448;-72
2021/09/12 11:34:02;;;;;;;1.30;0.45;;;23.50;99.90;;;;;;5074609;28;20439;-71
2021/09/12 11:36:50;;;;;;;0.80;0.40;;;23.90;99.90;;;;;;5073272;28;20502;-71
2021/09/12 11:39:21;;;;;;;0.70;0.50;;;23.90;99.90;;;;;;5073405;28;20684;-72
2021/09/12 11:41:48;;;;;;;0.65;0.50;;;23.80;99.90;;;;;;5071904;28;20500;-72
2021/09/12 11:44:17;;;;;;;1.27;0.50;;;24.20;99.90;;;;;;5053812;28;20602;-72
2021/09/12 11:46:48;;;;;;;0.55;0.50;;;24.30;99.90;;;;;;5053211;28;20540;-72
2021/09/12 11:49:18;;;;;;;1.10;0.50;;;24.20;99.90;;;;;;5054002;28;20429;-73
2021/09/12 11:51:47;;;;;;;0.60;0.45;;;24.30;99.90;;;;;;5054868;28;20532;-72
2021/09/12 11:54:18;;;;;;;0.70;0.50;;;24.40;99.90;;;;;;5063240;28;20435;-73
2021/09/12 11:56:53;;;;;;;0.60;0.40;;;24.60;99.90;;;;;;5061766;28;20826;-73
2021/09/12 11:59:22;;;;;;;0.60;0.40;;;25.00;99.90;;;;;;5073797;28;20416;-74
2021/09/12 12:01:50;;;;;;;0.60;0.40;;;25.10;99.90;;;;;;5071662;28;20514;-75
2021/09/12 12:04:18;;;;;;;0.60;0.40;;;25.50;99.90;;;;;;5072425;28;20462;-73
2021/09/12 12:06:46;;;;;;;0.80;0.50;;;25.70;99.90;;;;;;5072580;28;20423;-73
2021/09/12 12:09:17;;;;;;;0.80;0.40;;;25.50;99.90;;;;;;5070561;28;20522;-72
2021/09/12 12:11:47;;;;;;;1.20;0.50;;;25.40;99.90;;;;;;5072434;28;20437;-72
2021/09/12 12:14:24;;;;;;;0.80;0.60;;;25.50;99.90;;;;;;5072372;28;20439;-71
2021/09/12 12:16:52;;;;;;;2.97;0.50;;;25.40;99.90;;;;;;5052204;28;20464;-71
2021/09/12 12:19:20;;;;;;;0.70;0.45;;;25.70;99.90;;;;;;5053043;28;20424;-71
2021/09/12 12:21:49;;;;;;;1.20;0.50;;;25.70;99.90;;;;;;5073005;28;20514;-71
2021/09/12 12:24:18;;;;;;;0.63;0.40;;;25.90;99.90;;;;;;5070520;28;20435;-71
2021/09/12 12:26:49;;;;;;;0.70;0.40;;;25.80;99.90;;;;;;5070729;28;20869;-71
2021/09/12 12:29:29;;;;;;;1.10;0.40;;;25.20;99.90;;;;;;5068536;28;21049;-71
2021/09/12 12:31:57;;;;;;;0.80;0.50;;;24.80;99.90;;;;;;5071358;28;20497;-71
2021/09/12 12:34:44;;;;;;;0.70;0.50;;;25.00;99.90;;;;;;5071107;28;20950;-71
2021/09/12 12:37:13;;;;;;;1.45;0.60;;;25.10;99.90;;;;;;5070534;28;20419;-71
2021/09/12 12:39:41;;;;;;;2.37;0.60;;;25.20;99.90;;;;;;5069492;28;20483;-71
2021/09/12 12:42:09;;;;;;;1.58;0.50;;;25.00;99.90;;;;;;5071457;28;20751;-71
2021/09/12 12:44:46;;;;;;;1.60;0.50;;;25.20;99.90;;;;;;5050942;28;20781;-73
2021/09/12 12:47:28;;;;;;;3.83;0.60;;;25.50;99.90;;;;;;5057475;28;20427;-73
2021/09/12 12:49:58;;;;;;;0.80;0.50;;;25.90;99.90;;;;;;5069464;28;20896;-74
2021/09/12 12:52:26;;;;;;;0.60;0.40;;;25.80;99.90;;;;;;5071583;28;20450;-74
2021/09/12 12:54:54;;;;;;;1.10;0.60;;;26.00;99.90;;;;;;5073562;28;20907;-75